Time,TemperatureF,DewpointF,PressureIn,WindDirection,WindDirectionDegrees,WindSpeedMPH,WindSpeedGustMPH,Humidity,HourlyPrecipIn,Conditions,Clouds,dailyrainin,SoftwareType,DateUTC
2013-02-26 00:00:00,31.4,28.0,30.22,WNW,284,0.0,2.0,87,0.00,,---,0.00,VWS V14.01,2013-02-26 05:00:00,
2013-02-26 00:05:00,31.3,27.3,30.22,WNW,284,0.0,2.0,85,0.00,,---,0.00,VWS V14.01,2013-02-26 05:05:00,
2013-02-26 00:10:00,31.4,27.1,30.22,WNW,284,0.0,2.0,84,0.00,,---,0.00,VWS V14.01,2013-02-26 05:10:00,
2013-02-26 00:15:00,31.5,27.5,30.22,WNW,284,0.0,1.0,85,0.00,,---,0.00,VWS V14.01,2013-02-26 05:15:00,
2013-02-26 00:20:00,31.6,27.3,30.22,WNW,284,1.0,3.0,84,0.00,,---,0.00,VWS V14.01,2013-02-26 05:20:00,
2013-02-26 00:25:00,31.7,26.8,30.22,WNW,284,0.0,2.0,82,0.00,,---,0.00,VWS V14.01,2013-02-26 05:25:00,
2013-02-26 00:30:00,31.7,26.8,30.21,WNW,284,0.0,2.0,82,0.00,,---,0.00,VWS V14.01,2013-02-26 05:30:00,
2013-02-26 00:35:00,31.8,26.9,30.22,WNW,284,0.0,2.0,82,0.00,,---,0.00,VWS V14.01,2013-02-26 05:35:00,
2013-02-26 00:40:00,31.7,26.8,30.21,WNW,284,0.0,2.0,82,0.00,,---,0.00,VWS V14.01,2013-02-26 05:40:00,
2013-02-26 00:45:00,31.5,26.6,30.21,WNW,284,0.0,1.0,82,0.00,,---,0.00,VWS V14.01,2013-02-26 05:45:00,
2013-02-26 00:50:00,31.4,26.5,30.21,WNW,284,1.0,1.0,82,0.00,,---,0.00,VWS V14.01,2013-02-26 05:50:00,
2013-02-26 00:55:00,31.1,26.8,30.21,WNW,284,0.0,0.0,84,0.00,,---,0.00,VWS V14.01,2013-02-26 05:55:00,
2013-02-26 01:00:00,30.8,26.5,30.21,WNW,284,1.0,1.0,84,0.00,,---,0.00,VWS V14.01,2013-02-26 06:00:00,
2013-02-26 01:05:00,30.6,26.4,30.21,WNW,284,0.0,1.0,84,0.00,,---,0.00,VWS V14.01,2013-02-26 06:05:00,
2013-02-26 01:10:00,30.5,26.2,30.21,WNW,284,0.0,2.0,84,0.00,,---,0.00,VWS V14.01,2013-02-26 06:10:00,
2013-02-26 01:15:00,30.3,26.3,30.21,WNW,284,1.0,2.0,85,0.00,,---,0.00,VWS V14.01,2013-02-26 06:15:00,
2013-02-26 01:20:00,30.1,26.1,30.21,WNW,284,1.0,2.0,85,0.00,,---,0.00,VWS V14.01,2013-02-26 06:20:00,
2013-02-26 01:25:00,30.0,26.0,30.22,WNW,284,0.0,1.0,85,0.00,,---,0.00,VWS V14.01,2013-02-26 06:25:00,
2013-02-26 01:30:00,30.0,26.0,30.23,WNW,284,0.0,2.0,85,0.00,,---,0.00,VWS V14.01,2013-02-26 06:30:00,
2013-02-26 01:35:00,29.9,26.0,30.23,WNW,284,0.0,2.0,85,0.00,,---,0.00,VWS V14.01,2013-02-26 06:35:00,
2013-02-26 01:40:00,29.7,26.0,30.24,WNW,284,0.0,2.0,86,0.00,,---,0.00,VWS V14.01,2013-02-26 06:40:00,
2013-02-26 01:45:00,29.6,25.9,30.25,WNW,284,0.0,2.0,86,0.00,,---,0.00,VWS V14.01,2013-02-26 06:45:00,
2013-02-26 01:50:00,29.6,25.9,30.25,WNW,284,0.0,2.0,86,0.00,,---,0.00,VWS V14.01,2013-02-26 06:50:00,
2013-02-26 01:55:00,29.6,26.2,30.25,WNW,284,1.0,1.0,87,0.00,,---,0.00,VWS V14.01,2013-02-26 06:55:00,
2013-02-26 02:00:00,29.5,26.1,30.26,WNW,284,0.0,1.0,87,0.00,,---,0.00,VWS V14.01,2013-02-26 07:00:00,
2013-02-26 02:05:00,29.4,26.0,30.26,WNW,284,1.0,1.0,87,0.00,,---,0.00,VWS V14.01,2013-02-26 07:05:00,
2013-02-26 02:10:00,29.2,25.8,30.25,WNW,284,0.0,1.0,87,0.00,,---,0.00,VWS V14.01,2013-02-26 07:10:00,
2013-02-26 02:15:00,29.2,25.8,30.26,WNW,284,0.0,0.0,87,0.00,,---,0.00,VWS V14.01,2013-02-26 07:15:00,
2013-02-26 02:20:00,29.0,25.9,30.25,WNW,284,0.0,0.0,88,0.00,,---,0.00,VWS V14.01,2013-02-26 07:20:00,
2013-02-26 02:25:00,28.9,25.8,30.25,WNW,284,0.0,1.0,88,0.00,,---,0.00,VWS V14.01,2013-02-26 07:25:00,
2013-02-26 02:30:00,28.8,26.0,30.26,WNW,284,0.0,1.0,89,0.00,,---,0.00,VWS V14.01,2013-02-26 07:30:00,
2013-02-26 02:35:00,28.8,25.7,30.27,WNW,284,0.0,1.0,88,0.00,,---,0.00,VWS V14.01,2013-02-26 07:35:00,
2013-02-26 02:40:00,28.7,25.6,30.25,WNW,284,0.0,1.0,88,0.00,,---,0.00,VWS V14.01,2013-02-26 07:40:00,
2013-02-26 02:45:00,28.7,25.6,30.26,WNW,284,1.0,1.0,88,0.00,,---,0.00,VWS V14.01,2013-02-26 07:45:00,
2013-02-26 02:50:00,28.6,25.8,30.25,WNW,284,0.0,1.0,89,0.00,,---,0.00,VWS V14.01,2013-02-26 07:50:00,
2013-02-26 02:55:00,28.5,25.7,30.25,WNW,284,0.0,1.0,89,0.00,,---,0.00,VWS V14.01,2013-02-26 07:55:00,
2013-02-26 03:00:00,28.4,25.3,30.25,WNW,284,0.0,1.0,88,0.00,,---,0.00,VWS V14.01,2013-02-26 08:00:00,
2013-02-26 03:05:00,28.3,25.5,30.25,WNW,284,0.0,1.0,89,0.00,,---,0.00,VWS V14.01,2013-02-26 08:05:00,
2013-02-26 03:10:00,28.2,25.4,30.24,WNW,284,0.0,1.0,89,0.00,,---,0.00,VWS V14.01,2013-02-26 08:10:00,
2013-02-26 03:15:00,28.1,25.5,30.24,WNW,284,0.0,0.0,90,0.00,,---,0.00,VWS V14.01,2013-02-26 08:15:00,
2013-02-26 03:20:00,28.0,25.5,30.24,WNW,284,0.0,2.0,90,0.00,,---,0.00,VWS V14.01,2013-02-26 08:20:00,
2013-02-26 03:25:00,28.1,25.3,30.25,WNW,284,1.0,2.0,89,0.00,,---,0.00,VWS V14.01,2013-02-26 08:25:00,
2013-02-26 03:30:00,28.3,25.2,30.24,WNW,284,1.0,2.0,88,0.00,,---,0.00,VWS V14.01,2013-02-26 08:30:00,
2013-02-26 03:35:00,28.4,25.0,30.24,WNW,284,0.0,2.0,87,0.00,,---,0.00,VWS V14.01,2013-02-26 08:35:00,
2013-02-26 03:40:00,28.5,25.1,30.24,WNW,284,0.0,2.0,87,0.00,,---,0.00,VWS V14.01,2013-02-26 08:40:00,
2013-02-26 03:45:00,28.5,25.1,30.24,WNW,284,1.0,1.0,87,0.00,,---,0.00,VWS V14.01,2013-02-26 08:45:00,
2013-02-26 03:50:00,28.5,25.1,30.24,WNW,284,0.0,1.0,87,0.00,,---,0.00,VWS V14.01,2013-02-26 08:50:00,
2013-02-26 03:55:00,28.4,25.0,30.24,WNW,284,0.0,1.0,87,0.00,,---,0.00,VWS V14.01,2013-02-26 08:55:00,
2013-02-26 04:00:00,28.3,25.2,30.24,West,277,3.0,3.0,88,0.00,,---,0.00,VWS V14.01,2013-02-26 09:00:00,
2013-02-26 04:04:00,28.3,24.9,30.24,West,280,1.0,2.0,87,0.00,,---,0.00,VWS V14.01,2013-02-26 09:04:00,
2013-02-26 04:09:00,28.4,25.0,30.25,WNW,287,0.0,3.0,87,0.00,,---,0.00,VWS V14.01,2013-02-26 09:09:00,
2013-02-26 04:10:00,27.4,24.3,30.27,WNW,287,0.0,1.0,88,0.00,,---,0.00,VWS V14.01,2013-02-26 09:10:00,
2013-02-26 04:14:00,28.5,24.9,30.24,WNW,287,0.0,0.0,86,0.00,,---,0.00,VWS V14.01,2013-02-26 09:14:00,
2013-02-26 04:19:00,28.6,25.0,30.24,WNW,287,0.0,0.0,86,0.00,,---,0.00,VWS V14.01,2013-02-26 09:19:00,
2013-02-26 04:20:00,27.2,24.4,30.27,WNW,287,0.0,1.0,89,0.00,,---,0.00,VWS V14.01,2013-02-26 09:20:00,
2013-02-26 04:24:00,28.5,24.9,30.25,WNW,287,0.0,0.0,86,0.00,,---,0.00,VWS V14.01,2013-02-26 09:24:00,
2013-02-26 04:29:00,28.3,24.9,30.24,WNW,287,0.0,1.0,87,0.00,,---,0.00,VWS V14.01,2013-02-26 09:29:00,
2013-02-26 04:30:00,26.9,24.1,30.26,WNW,287,0.0,1.0,89,0.00,,---,0.00,VWS V14.01,2013-02-26 09:30:00,
2013-02-26 04:34:00,28.2,24.8,30.25,WNW,287,0.0,1.0,87,0.00,,---,0.00,VWS V14.01,2013-02-26 09:34:00,
2013-02-26 04:39:00,28.0,24.6,30.26,WNW,287,0.0,1.0,87,0.00,,---,0.00,VWS V14.01,2013-02-26 09:39:00,
2013-02-26 04:40:00,26.6,24.1,30.26,WNW,287,0.0,1.0,90,0.00,,---,0.00,VWS V14.01,2013-02-26 09:40:00,
2013-02-26 04:44:00,27.9,24.5,30.26,WNW,287,0.0,1.0,87,0.00,,---,0.00,VWS V14.01,2013-02-26 09:44:00,
2013-02-26 04:50:00,27.8,24.7,30.26,WNW,287,0.0,2.0,88,0.00,,---,0.00,VWS V14.01,2013-02-26 09:50:00,
2013-02-26 04:54:00,27.7,24.6,30.26,WNW,287,0.0,1.0,88,0.00,,---,0.00,VWS V14.01,2013-02-26 09:54:00,
2013-02-26 04:59:00,27.6,24.5,30.26,WNW,287,0.0,1.0,88,0.00,,---,0.00,VWS V14.01,2013-02-26 09:59:00,
2013-02-26 05:00:00,26.2,23.9,30.26,WNW,287,2.0,2.0,91,0.00,,---,0.00,VWS V14.01,2013-02-26 10:00:00,
2013-02-26 05:04:00,27.5,24.4,30.26,WNW,287,0.0,0.0,88,0.00,,---,0.00,VWS V14.01,2013-02-26 10:04:00,
2013-02-26 05:09:00,27.4,24.3,30.26,WNW,287,0.0,1.0,88,0.00,,---,0.00,VWS V14.01,2013-02-26 10:09:00,
2013-02-26 05:10:00,26.3,24.0,30.26,WNW,287,0.0,2.0,91,0.00,,---,0.00,VWS V14.01,2013-02-26 10:10:00,
2013-02-26 05:14:00,27.3,24.5,30.27,WNW,287,0.0,1.0,89,0.00,,---,0.00,VWS V14.01,2013-02-26 10:14:00,
2013-02-26 05:19:00,27.2,24.4,30.27,WNW,287,0.0,1.0,89,0.00,,---,0.00,VWS V14.01,2013-02-26 10:19:00,
2013-02-26 05:20:00,26.6,24.1,30.26,WNW,287,0.0,2.0,90,0.00,,---,0.00,VWS V14.01,2013-02-26 10:20:00,
2013-02-26 05:24:00,27.1,24.3,30.27,WNW,287,0.0,1.0,89,0.00,,---,0.00,VWS V14.01,2013-02-26 10:24:00,
2013-02-26 05:29:00,27.0,24.2,30.27,WNW,287,0.0,1.0,89,0.00,,---,0.00,VWS V14.01,2013-02-26 10:29:00,
2013-02-26 05:30:00,26.6,24.1,30.27,WNW,287,1.0,2.0,90,0.00,,---,0.00,VWS V14.01,2013-02-26 10:30:00,
2013-02-26 05:34:00,26.8,24.0,30.26,WNW,287,0.0,1.0,89,0.00,,---,0.00,VWS V14.01,2013-02-26 10:34:00,
2013-02-26 05:39:00,26.6,24.1,30.26,WNW,287,0.0,1.0,90,0.00,,---,0.00,VWS V14.01,2013-02-26 10:39:00,
2013-02-26 05:40:00,26.5,24.0,30.27,WNW,287,1.0,2.0,90,0.00,,---,0.00,VWS V14.01,2013-02-26 10:40:00,
2013-02-26 05:44:00,26.5,24.0,30.26,WNW,287,1.0,1.0,90,0.00,,---,0.00,VWS V14.01,2013-02-26 10:44:00,
2013-02-26 05:49:00,26.4,23.9,30.26,WNW,287,1.0,1.0,90,0.00,,---,0.00,VWS V14.01,2013-02-26 10:49:00,
2013-02-26 05:50:00,26.4,24.1,30.28,WNW,287,0.0,2.0,91,0.00,,---,0.00,VWS V14.01,2013-02-26 10:50:00,
2013-02-26 05:54:00,26.3,24.0,30.26,WNW,287,0.0,2.0,91,0.00,,---,0.00,VWS V14.01,2013-02-26 10:54:00,
2013-02-26 05:59:00,26.2,23.9,30.26,WNW,287,1.0,2.0,91,0.00,,---,0.00,VWS V14.01,2013-02-26 10:59:00,
2013-02-26 06:00:00,26.2,23.7,30.27,WNW,287,1.0,2.0,90,0.00,,---,0.00,VWS V14.01,2013-02-26 11:00:00,
2013-02-26 06:04:00,26.1,23.8,30.26,WNW,287,0.0,2.0,91,0.00,,---,0.00,VWS V14.01,2013-02-26 11:04:00,
2013-02-26 06:09:00,26.2,24.2,30.26,WNW,287,0.0,2.0,92,0.00,,---,0.00,VWS V14.01,2013-02-26 11:09:00,
2013-02-26 06:10:00,26.2,23.9,30.27,WNW,287,0.0,2.0,91,0.00,,---,0.00,VWS V14.01,2013-02-26 11:10:00,
2013-02-26 06:14:00,26.4,24.1,30.26,WNW,287,0.0,2.0,91,0.00,,---,0.00,VWS V14.01,2013-02-26 11:14:00,
2013-02-26 06:19:00,26.5,24.0,30.26,WNW,287,0.0,2.0,90,0.00,,---,0.00,VWS V14.01,2013-02-26 11:19:00,
2013-02-26 06:20:00,26.3,24.0,30.27,WNW,287,0.0,2.0,91,0.00,,---,0.00,VWS V14.01,2013-02-26 11:20:00,
2013-02-26 06:24:00,26.6,24.1,30.27,WNW,287,0.0,1.0,90,0.00,,---,0.00,VWS V14.01,2013-02-26 11:24:00,
2013-02-26 06:29:00,26.6,24.1,30.27,WNW,287,0.0,2.0,90,0.00,,---,0.00,VWS V14.01,2013-02-26 11:29:00,
2013-02-26 06:30:00,26.4,24.1,30.27,WNW,287,0.0,0.0,91,0.00,,---,0.00,VWS V14.01,2013-02-26 11:30:00,
2013-02-26 06:34:00,26.5,24.0,30.27,WNW,287,1.0,2.0,90,0.00,,---,0.00,VWS V14.01,2013-02-26 11:34:00,
2013-02-26 06:39:00,26.5,24.0,30.27,WNW,287,0.0,2.0,90,0.00,,---,0.00,VWS V14.01,2013-02-26 11:39:00,
2013-02-26 06:40:00,26.6,24.3,30.28,WNW,287,0.0,0.0,91,0.00,,---,0.00,VWS V14.01,2013-02-26 11:40:00,
2013-02-26 06:44:00,26.5,24.0,30.27,WNW,287,1.0,2.0,90,0.00,,---,0.00,VWS V14.01,2013-02-26 11:44:00,
2013-02-26 06:49:00,26.4,23.9,30.27,WNW,287,0.0,2.0,90,0.00,,---,0.00,VWS V14.01,2013-02-26 11:49:00,
2013-02-26 06:50:00,27.0,24.7,30.28,WNW,287,0.0,1.0,91,0.00,,---,0.00,VWS V14.01,2013-02-26 11:50:00,
2013-02-26 06:54:00,26.4,24.1,30.28,WNW,287,1.0,2.0,91,0.00,,---,0.00,VWS V14.01,2013-02-26 11:54:00,
2013-02-26 06:59:00,26.3,23.8,30.27,WNW,287,0.0,2.0,90,0.00,,---,0.00,VWS V14.01,2013-02-26 11:59:00,
2013-02-26 07:00:00,27.7,25.4,30.28,WNW,287,0.0,1.0,91,0.00,,---,0.00,VWS V14.01,2013-02-26 12:00:00,
2013-02-26 07:04:00,26.2,23.9,30.27,WNW,287,0.0,1.0,91,0.00,,---,0.00,VWS V14.01,2013-02-26 12:04:00,
2013-02-26 07:09:00,26.2,23.9,30.27,WNW,287,1.0,2.0,91,0.00,,---,0.00,VWS V14.01,2013-02-26 12:09:00,
2013-02-26 07:10:00,28.2,25.9,30.28,WNW,287,0.0,0.0,91,0.00,,---,0.00,VWS V14.01,2013-02-26 12:10:00,
2013-02-26 07:14:00,26.2,23.9,30.27,WNW,287,1.0,1.0,91,0.00,,---,0.00,VWS V14.01,2013-02-26 12:14:00,
2013-02-26 07:19:00,26.2,23.9,30.27,WNW,287,0.0,2.0,91,0.00,,---,0.00,VWS V14.01,2013-02-26 12:19:00,
2013-02-26 07:20:00,28.9,26.3,30.29,WNW,287,0.0,2.0,90,0.00,,---,0.00,VWS V14.01,2013-02-26 12:20:00,
2013-02-26 07:24:00,26.3,24.0,30.26,WNW,287,0.0,0.0,91,0.00,,---,0.00,VWS V14.01,2013-02-26 12:24:00,
2013-02-26 07:29:00,26.3,24.0,30.27,WNW,287,0.0,0.0,91,0.00,,---,0.00,VWS V14.01,2013-02-26 12:29:00,
2013-02-26 07:30:00,29.9,27.3,30.28,WNW,287,0.0,0.0,90,0.00,,---,0.00,VWS V14.01,2013-02-26 12:30:00,
2013-02-26 07:34:00,26.4,24.1,30.27,WNW,287,1.0,1.0,91,0.00,,---,0.00,VWS V14.01,2013-02-26 12:34:00,
2013-02-26 07:39:00,26.5,24.2,30.28,WNW,287,0.0,0.0,91,0.00,,---,0.00,VWS V14.01,2013-02-26 12:39:00,
2013-02-26 07:40:00,31.4,28.0,30.28,WNW,287,0.0,2.0,87,0.00,,---,0.00,VWS V14.01,2013-02-26 12:40:00,
2013-02-26 07:44:00,26.7,24.4,30.28,WNW,287,1.0,1.0,91,0.00,,---,0.00,VWS V14.01,2013-02-26 12:44:00,
2013-02-26 07:49:00,26.9,24.6,30.28,WNW,287,0.0,1.0,91,0.00,,---,0.00,VWS V14.01,2013-02-26 12:49:00,
2013-02-26 07:50:00,32.5,28.2,30.28,WNW,287,0.0,1.0,84,0.00,,---,0.00,VWS V14.01,2013-02-26 12:50:00,
2013-02-26 07:54:00,27.2,24.9,30.28,WNW,287,0.0,1.0,91,0.00,,---,0.00,VWS V14.01,2013-02-26 12:54:00,
2013-02-26 07:59:00,27.5,25.2,30.28,WNW,287,0.0,1.0,91,0.00,,---,0.00,VWS V14.01,2013-02-26 12:59:00,
2013-02-26 08:00:00,33.3,28.4,30.28,WNW,287,0.0,1.0,82,0.00,,---,0.00,VWS V14.01,2013-02-26 13:00:00,
2013-02-26 08:04:00,27.8,25.5,30.29,WNW,287,0.0,0.0,91,0.00,,---,0.00,VWS V14.01,2013-02-26 13:04:00,
2013-02-26 08:09:00,28.1,25.5,30.29,WNW,287,0.0,0.0,90,0.00,,---,0.00,VWS V14.01,2013-02-26 13:09:00,
2013-02-26 08:10:00,34.3,28.8,30.29,West,275,1.0,2.0,80,0.00,,---,0.00,VWS V14.01,2013-02-26 13:10:00,
2013-02-26 08:14:00,28.4,26.1,30.29,WNW,287,0.0,2.0,91,0.00,,---,0.00,VWS V14.01,2013-02-26 13:14:00,
2013-02-26 08:19:00,28.7,26.1,30.29,WNW,287,0.0,2.0,90,0.00,,---,0.00,VWS V14.01,2013-02-26 13:19:00,
2013-02-26 08:20:00,35.0,28.5,30.30,NNE,20,0.0,3.0,77,0.00,,---,0.00,VWS V14.01,2013-02-26 13:20:00,
2013-02-26 08:24:00,29.2,26.6,30.29,WNW,287,0.0,0.0,90,0.00,,---,0.00,VWS V14.01,2013-02-26 13:24:00,
2013-02-26 08:29:00,29.7,27.1,30.28,WNW,287,0.0,0.0,90,0.00,,---,0.00,VWS V14.01,2013-02-26 13:29:00,
2013-02-26 08:30:00,35.3,28.8,30.30,ESE,105,2.0,3.0,77,0.00,,---,0.00,VWS V14.01,2013-02-26 13:30:00,
2013-02-26 08:34:00,30.3,27.5,30.28,WNW,287,0.0,0.0,89,0.00,,---,0.00,VWS V14.01,2013-02-26 13:34:00,
2013-02-26 08:39:00,31.0,27.9,30.28,WNW,287,0.0,1.0,88,0.00,,---,0.00,VWS V14.01,2013-02-26 13:39:00,
2013-02-26 08:40:00,35.6,29.1,30.30,ESE,105,0.0,2.0,77,0.00,,---,0.00,VWS V14.01,2013-02-26 13:40:00,
2013-02-26 08:44:00,31.7,28.0,30.28,WNW,287,0.0,0.0,86,0.00,,---,0.00,VWS V14.01,2013-02-26 13:44:00,
2013-02-26 08:49:00,32.2,28.2,30.28,WNW,287,0.0,1.0,85,0.00,,---,0.00,VWS V14.01,2013-02-26 13:49:00,
2013-02-26 08:50:00,36.2,29.4,30.30,ESE,106,0.0,2.0,76,0.00,,---,0.00,VWS V14.01,2013-02-26 13:50:00,
2013-02-26 08:54:00,32.7,28.1,30.28,WNW,287,0.0,1.0,83,0.00,,---,0.00,VWS V14.01,2013-02-26 13:54:00,
2013-02-26 08:59:00,33.1,28.2,30.28,WNW,287,0.0,1.0,82,0.00,,---,0.00,VWS V14.01,2013-02-26 13:59:00,
2013-02-26 09:00:00,36.9,29.7,30.30,ESE,106,0.0,1.0,75,0.00,,---,0.00,VWS V14.01,2013-02-26 14:00:00,
2013-02-26 09:04:00,33.5,28.3,30.28,WNW,287,0.0,1.0,81,0.00,,---,0.00,VWS V14.01,2013-02-26 14:04:00,
2013-02-26 09:09:00,34.1,28.9,30.29,West,275,0.0,2.0,81,0.00,,---,0.00,VWS V14.01,2013-02-26 14:09:00,
2013-02-26 09:10:00,37.6,29.4,30.29,ESE,106,0.0,2.0,72,0.00,,---,0.00,VWS V14.01,2013-02-26 14:10:00,
2013-02-26 09:14:00,34.4,28.9,30.29,West,275,0.0,1.0,80,0.00,,---,0.00,VWS V14.01,2013-02-26 14:14:00,
2013-02-26 09:19:00,34.9,29.4,30.30,West,275,1.0,1.0,80,0.00,,---,0.00,VWS V14.01,2013-02-26 14:19:00,
2013-02-26 09:20:00,38.1,28.8,30.28,East,98,1.0,2.0,69,0.00,,---,0.00,VWS V14.01,2013-02-26 14:20:00,
2013-02-26 09:24:00,35.2,29.0,30.30,NNE,20,0.0,1.0,78,0.00,,---,0.00,VWS V14.01,2013-02-26 14:24:00,
2013-02-26 09:29:00,35.3,29.1,30.30,NE,47,0.0,3.0,78,0.00,,---,0.00,VWS V14.01,2013-02-26 14:29:00,
2013-02-26 09:30:00,38.6,29.0,30.28,East,97,0.0,4.0,68,0.00,,---,0.00,VWS V14.01,2013-02-26 14:30:00,
2013-02-26 09:34:00,35.4,29.2,30.30,ESE,105,0.0,2.0,78,0.00,,---,0.00,VWS V14.01,2013-02-26 14:34:00,
2013-02-26 09:39:00,35.5,29.3,30.30,ESE,105,0.0,2.0,78,0.00,,---,0.00,VWS V14.01,2013-02-26 14:39:00,
2013-02-26 09:40:00,39.3,28.5,30.28,East,100,1.0,2.0,65,0.00,,---,0.00,VWS V14.01,2013-02-26 14:40:00,
2013-02-26 09:44:00,35.8,29.3,30.30,ESE,105,1.0,2.0,77,0.00,,---,0.00,VWS V14.01,2013-02-26 14:44:00,
2013-02-26 09:49:00,36.0,29.2,30.30,ESE,106,0.0,2.0,76,0.00,,---,0.00,VWS V14.01,2013-02-26 14:49:00,
2013-02-26 09:50:00,39.3,27.0,30.27,ENE,73,0.0,5.0,61,0.00,,---,0.00,VWS V14.01,2013-02-26 14:50:00,
2013-02-26 09:54:00,36.4,28.9,30.30,ESE,106,0.0,1.0,74,0.00,,---,0.00,VWS V14.01,2013-02-26 14:54:00,
2013-02-26 09:59:00,36.8,29.3,30.30,ESE,106,0.0,1.0,74,0.00,,---,0.00,VWS V14.01,2013-02-26 14:59:00,
2013-02-26 10:00:00,39.4,27.9,30.27,NE,52,0.0,6.0,63,0.00,,---,0.00,VWS V14.01,2013-02-26 15:00:00,
2013-02-26 10:04:00,37.1,29.9,30.30,ESE,106,0.0,2.0,75,0.00,,---,0.00,VWS V14.01,2013-02-26 15:04:00,
2013-02-26 10:09:00,37.5,29.3,30.29,ESE,106,0.0,2.0,72,0.00,,---,0.00,VWS V14.01,2013-02-26 15:09:00,
2013-02-26 10:10:00,39.6,28.1,30.26,ENE,62,0.0,4.0,63,0.00,,---,0.00,VWS V14.01,2013-02-26 15:10:00,
2013-02-26 10:14:00,37.7,29.5,30.29,ESE,106,0.0,0.0,72,0.00,,---,0.00,VWS V14.01,2013-02-26 15:14:00,
2013-02-26 10:19:00,38.0,29.1,30.28,East,98,0.0,2.0,70,0.00,,---,0.00,VWS V14.01,2013-02-26 15:19:00,
2013-02-26 10:20:00,39.8,29.0,30.26,SE,133,0.0,4.0,65,0.00,,---,0.00,VWS V14.01,2013-02-26 15:20:00,
2013-02-26 10:24:00,38.2,28.6,30.28,East,97,0.0,4.0,68,0.00,,---,0.00,VWS V14.01,2013-02-26 15:24:00,
2013-02-26 10:29:00,38.4,28.8,30.28,East,97,0.0,4.0,68,0.00,,---,0.00,VWS V14.01,2013-02-26 15:29:00,
2013-02-26 10:30:00,39.8,28.2,30.26,East,99,2.0,5.0,63,0.00,,---,0.00,VWS V14.01,2013-02-26 15:30:00,
2013-02-26 10:34:00,38.8,28.1,30.28,East,100,0.0,1.0,65,0.00,,---,0.00,VWS V14.01,2013-02-26 15:34:00,
2013-02-26 10:39:00,39.1,28.7,30.28,East,100,0.0,2.0,66,0.00,,---,0.00,VWS V14.01,2013-02-26 15:39:00,
2013-02-26 10:40:00,39.5,28.0,30.26,ENE,65,3.0,5.0,63,0.00,,---,0.00,VWS V14.01,2013-02-26 15:40:00,
2013-02-26 10:44:00,39.4,27.9,30.28,ESE,103,2.0,5.0,63,0.00,,---,0.00,VWS V14.01,2013-02-26 15:44:00,
2013-02-26 10:49:00,39.4,27.1,30.27,East,85,0.0,5.0,61,0.00,,---,0.00,VWS V14.01,2013-02-26 15:49:00,
2013-02-26 10:50:00,39.5,27.6,30.26,ENE,71,3.0,4.0,62,0.00,,---,0.00,VWS V14.01,2013-02-26 15:50:00,
2013-02-26 10:54:00,39.4,27.9,30.28,East,92,0.0,6.0,63,0.00,,---,0.00,VWS V14.01,2013-02-26 15:54:00,
2013-02-26 10:59:00,39.4,27.9,30.26,NE,49,1.0,6.0,63,0.00,,---,0.00,VWS V14.01,2013-02-26 15:59:00,
2013-02-26 11:00:00,39.5,27.6,30.27,ENE,71,3.0,3.0,62,0.00,,---,0.00,VWS V14.01,2013-02-26 16:00:00,
2013-02-26 11:04:00,39.4,27.9,30.27,NE,53,2.0,3.0,63,0.00,,---,0.00,VWS V14.01,2013-02-26 16:04:00,
2013-02-26 11:09:00,39.5,27.6,30.27,ENE,62,1.0,4.0,62,0.00,,---,0.00,VWS V14.01,2013-02-26 16:09:00,
2013-02-26 11:10:00,39.3,27.4,30.26,East,79,0.0,3.0,62,0.00,,---,0.00,VWS V14.01,2013-02-26 16:10:00,
2013-02-26 11:14:00,39.7,28.1,30.26,ENE,73,2.0,3.0,63,0.00,,---,0.00,VWS V14.01,2013-02-26 16:14:00,
2013-02-26 11:19:00,39.8,27.5,30.26,SE,138,0.0,4.0,61,0.00,,---,0.00,VWS V14.01,2013-02-26 16:19:00,
2013-02-26 11:20:00,39.1,27.2,30.26,South,175,0.0,5.0,62,0.00,,---,0.00,VWS V14.01,2013-02-26 16:20:00,
2013-02-26 11:24:00,39.9,28.3,30.26,SE,133,0.0,2.0,63,0.00,,---,0.00,VWS V14.01,2013-02-26 16:24:00,
2013-02-26 11:29:00,39.8,27.5,30.26,ENE,66,0.0,5.0,61,0.00,,---,0.00,VWS V14.01,2013-02-26 16:29:00,
2013-02-26 11:30:00,39.1,28.0,30.25,ENE,66,3.0,3.0,64,0.00,,---,0.00,VWS V14.01,2013-02-26 16:30:00,
2013-02-26 11:34:00,39.7,27.8,30.26,East,98,2.0,2.0,62,0.00,,---,0.00,VWS V14.01,2013-02-26 16:34:00,
2013-02-26 11:39:00,39.5,27.6,30.26,ESE,105,4.0,5.0,62,0.00,,---,0.00,VWS V14.01,2013-02-26 16:39:00,
2013-02-26 11:40:00,39.4,28.2,30.24,ENE,73,0.0,4.0,64,0.00,,---,0.00,VWS V14.01,2013-02-26 16:40:00,
2013-02-26 11:44:00,39.5,27.6,30.27,ENE,74,0.0,3.0,62,0.00,,---,0.00,VWS V14.01,2013-02-26 16:44:00,
2013-02-26 11:49:00,39.5,27.6,30.27,ENE,71,3.0,4.0,62,0.00,,---,0.00,VWS V14.01,2013-02-26 16:49:00,
2013-02-26 11:50:00,39.5,27.2,30.23,ENE,69,0.0,4.0,61,0.00,,---,0.00,VWS V14.01,2013-02-26 16:50:00,
2013-02-26 11:54:00,39.5,27.6,30.26,ENE,71,3.0,3.0,62,0.00,,---,0.00,VWS V14.01,2013-02-26 16:54:00,
2013-02-26 11:59:00,39.5,27.6,30.26,ENE,71,3.0,3.0,62,0.00,,---,0.00,VWS V14.01,2013-02-26 16:59:00,
2013-02-26 12:00:00,39.5,27.6,30.23,ENE,75,1.0,2.0,62,0.00,,---,0.00,VWS V14.01,2013-02-26 17:00:00,
2013-02-26 12:04:00,39.5,27.6,30.27,ENE,71,3.0,3.0,62,0.00,,---,0.00,VWS V14.01,2013-02-26 17:04:00,
2013-02-26 12:09:00,39.5,27.6,30.26,ENE,71,3.0,3.0,62,0.00,,---,0.00,VWS V14.01,2013-02-26 17:09:00,
2013-02-26 12:10:00,39.5,27.6,30.22,ENE,75,2.0,3.0,62,0.00,,---,0.00,VWS V14.01,2013-02-26 17:10:00,
2013-02-26 12:14:00,39.2,27.3,30.26,NE,34,0.0,2.0,62,0.00,,---,0.00,VWS V14.01,2013-02-26 17:14:00,
2013-02-26 12:19:00,39.2,27.3,30.26,South,175,0.0,5.0,62,0.00,,---,0.00,VWS V14.01,2013-02-26 17:19:00,
2013-02-26 12:20:00,39.7,26.6,30.22,ENE,75,0.0,3.0,59,0.00,,---,0.00,VWS V14.01,2013-02-26 17:20:00,
2013-02-26 12:24:00,39.1,27.6,30.26,South,175,0.0,1.0,63,0.00,,---,0.00,VWS V14.01,2013-02-26 17:24:00,
2013-02-26 12:29:00,39.1,27.6,30.25,ENE,66,1.0,3.0,63,0.00,,---,0.00,VWS V14.01,2013-02-26 17:29:00,
2013-02-26 12:30:00,39.8,27.1,30.22,ENE,68,2.0,5.0,60,0.00,,---,0.00,VWS V14.01,2013-02-26 17:30:00,
2013-02-26 12:34:00,39.2,27.7,30.25,NE,36,0.0,3.0,63,0.00,,---,0.00,VWS V14.01,2013-02-26 17:34:00,
2013-02-26 12:39:00,39.3,27.4,30.24,ENE,68,0.0,3.0,62,0.00,,---,0.00,VWS V14.01,2013-02-26 17:39:00,
2013-02-26 12:40:00,39.9,27.2,30.21,ENE,70,0.0,4.0,60,0.00,,---,0.00,VWS V14.01,2013-02-26 17:40:00,
2013-02-26 12:44:00,39.4,27.1,30.24,ENE,61,0.0,4.0,61,0.00,,---,0.00,VWS V14.01,2013-02-26 17:44:00,
2013-02-26 12:49:00,39.5,26.8,30.24,NE,47,2.0,4.0,60,0.00,,---,0.00,VWS V14.01,2013-02-26 17:49:00,
2013-02-26 12:50:00,40.0,27.6,30.20,ENE,70,0.0,3.0,61,0.00,,---,0.00,VWS V14.01,2013-02-26 17:50:00,
2013-02-26 12:54:00,39.6,27.3,30.23,ENE,69,0.0,1.0,61,0.00,,---,0.00,VWS V14.01,2013-02-26 17:54:00,
2013-02-26 12:59:00,39.6,28.4,30.23,ENE,75,1.0,2.0,64,0.00,,---,0.00,VWS V14.01,2013-02-26 17:59:00,
2013-02-26 13:00:00,39.9,27.6,30.19,ENE,73,1.0,4.0,61,0.00,,---,0.00,VWS V14.01,2013-02-26 18:00:00,
2013-02-26 13:04:00,39.6,27.7,30.22,ENE,75,0.0,3.0,62,0.00,,---,0.00,VWS V14.01,2013-02-26 18:04:00,
2013-02-26 13:09:00,39.5,27.2,30.22,ENE,75,0.0,3.0,61,0.00,,---,0.00,VWS V14.01,2013-02-26 18:09:00,
2013-02-26 13:10:00,39.8,27.1,30.20,ENE,74,0.0,5.0,60,0.00,,---,0.00,VWS V14.01,2013-02-26 18:10:00,
2013-02-26 13:14:00,39.6,27.7,30.22,ENE,75,0.0,2.0,62,0.00,,---,0.00,VWS V14.01,2013-02-26 18:14:00,
2013-02-26 13:19:00,39.6,26.9,30.22,ENE,75,1.0,3.0,60,0.00,,---,0.00,VWS V14.01,2013-02-26 18:19:00,
2013-02-26 13:20:00,39.8,27.9,30.20,ENE,71,0.0,3.0,62,0.00,,---,0.00,VWS V14.01,2013-02-26 18:20:00,
2013-02-26 13:24:00,39.7,27.4,30.22,ENE,75,0.0,1.0,61,0.00,,---,0.00,VWS V14.01,2013-02-26 18:24:00,
2013-02-26 13:29:00,39.7,28.1,30.22,ENE,75,1.0,2.0,63,0.00,,---,0.00,VWS V14.01,2013-02-26 18:29:00,
2013-02-26 13:30:00,39.9,27.2,30.19,SE,126,1.0,6.0,60,0.00,,---,0.00,VWS V14.01,2013-02-26 18:30:00,
2013-02-26 13:34:00,39.8,26.7,30.22,ENE,66,1.0,3.0,59,0.00,,---,0.00,VWS V14.01,2013-02-26 18:34:00,
2013-02-26 13:39:00,39.9,27.2,30.21,ENE,70,0.0,4.0,60,0.00,,---,0.00,VWS V14.01,2013-02-26 18:39:00,
2013-02-26 13:40:00,39.7,27.8,30.19,SE,134,0.0,5.0,62,0.00,,---,0.00,VWS V14.01,2013-02-26 18:40:00,
2013-02-26 13:44:00,39.9,26.8,30.21,ENE,70,0.0,1.0,59,0.00,,---,0.00,VWS V14.01,2013-02-26 18:44:00,
2013-02-26 13:49:00,40.0,26.8,30.21,ENE,70,0.0,3.0,59,0.00,,---,0.00,VWS V14.01,2013-02-26 18:49:00,
2013-02-26 13:50:00,39.7,27.8,30.19,South,188,2.0,3.0,62,0.00,,---,0.00,VWS V14.01,2013-02-26 18:50:00,
2013-02-26 13:54:00,40.0,28.4,30.20,SE,135,1.0,4.0,63,0.00,,---,0.00,VWS V14.01,2013-02-26 18:54:00,
2013-02-26 13:59:00,39.9,28.7,30.19,East,80,2.0,4.0,64,0.00,,---,0.00,VWS V14.01,2013-02-26 18:59:00,
2013-02-26 14:00:00,39.5,27.2,30.20,SSE,156,0.0,7.0,61,0.00,,---,0.00,VWS V14.01,2013-02-26 19:00:00,
2013-02-26 14:04:00,39.8,28.2,30.19,SE,128,1.0,4.0,63,0.00,,---,0.00,VWS V14.01,2013-02-26 19:04:00,
2013-02-26 14:09:00,39.8,27.1,30.19,ENE,63,0.0,5.0,60,0.00,,---,0.00,VWS V14.01,2013-02-26 19:09:00,
2013-02-26 14:10:00,39.4,27.5,30.20,SE,138,0.0,5.0,62,0.00,,---,0.00,VWS V14.01,2013-02-26 19:10:00,
2013-02-26 14:14:00,39.8,27.1,30.20,ENE,78,0.0,2.0,60,0.00,,---,0.00,VWS V14.01,2013-02-26 19:14:00,
2013-02-26 14:19:00,39.9,28.7,30.20,ENE,71,0.0,3.0,64,0.00,,---,0.00,VWS V14.01,2013-02-26 19:19:00,
2013-02-26 14:20:00,39.2,27.7,30.20,ENE,58,3.0,7.0,63,0.00,,---,0.00,VWS V14.01,2013-02-26 19:20:00,
2013-02-26 14:24:00,39.8,27.9,30.20,East,92,1.0,6.0,62,0.00,,---,0.00,VWS V14.01,2013-02-26 19:24:00,
2013-02-26 14:29:00,39.9,28.0,30.19,SE,126,1.0,6.0,62,0.00,,---,0.00,VWS V14.01,2013-02-26 19:29:00,
2013-02-26 14:30:00,38.9,28.1,30.19,ENE,68,0.0,5.0,65,0.00,,---,0.00,VWS V14.01,2013-02-26 19:30:00,
2013-02-26 14:34:00,39.9,28.0,30.19,NE,48,5.0,5.0,62,0.00,,---,0.00,VWS V14.01,2013-02-26 19:34:00,
2013-02-26 14:39:00,39.8,27.9,30.19,SE,134,0.0,5.0,62,0.00,,---,0.00,VWS V14.01,2013-02-26 19:39:00,
2013-02-26 14:40:00,38.8,28.1,30.18,ESE,111,0.0,2.0,65,0.00,,---,0.00,VWS V14.01,2013-02-26 19:40:00,
2013-02-26 14:44:00,39.7,27.4,30.19,SE,134,1.0,1.0,61,0.00,,---,0.00,VWS V14.01,2013-02-26 19:44:00,
2013-02-26 14:49:00,39.7,27.4,30.19,South,188,0.0,3.0,61,0.00,,---,0.00,VWS V14.01,2013-02-26 19:49:00,
2013-02-26 14:50:00,38.6,27.9,30.18,ESE,111,1.0,1.0,65,0.00,,---,0.00,VWS V14.01,2013-02-26 19:50:00,
2013-02-26 14:54:00,39.6,27.7,30.19,SSE,154,1.0,4.0,62,0.00,,---,0.00,VWS V14.01,2013-02-26 19:54:00,
2013-02-26 14:59:00,39.5,27.6,30.20,SSE,150,1.0,4.0,62,0.00,,---,0.00,VWS V14.01,2013-02-26 19:59:00,
2013-02-26 15:00:00,38.5,28.1,30.18,NE,41,0.0,4.0,66,0.00,,---,0.00,VWS V14.01,2013-02-26 20:00:00,
2013-02-26 15:04:00,39.5,27.2,30.19,ENE,62,2.0,4.0,61,0.00,,---,0.00,VWS V14.01,2013-02-26 20:04:00,
2013-02-26 15:09:00,39.4,27.1,30.20,ENE,76,0.0,5.0,61,0.00,,---,0.00,VWS V14.01,2013-02-26 20:09:00,
2013-02-26 15:10:00,38.4,27.7,30.17,NE,41,0.0,2.0,65,0.00,,---,0.00,VWS V14.01,2013-02-26 20:10:00,
2013-02-26 15:14:00,39.3,27.8,30.20,SE,138,0.0,1.0,63,0.00,,---,0.00,VWS V14.01,2013-02-26 20:14:00,
2013-02-26 15:19:00,39.2,27.7,30.20,ESE,110,0.0,5.0,63,0.00,,---,0.00,VWS V14.01,2013-02-26 20:19:00,
2013-02-26 15:20:00,38.2,27.9,30.17,ENE,59,0.0,3.0,66,0.00,,---,0.00,VWS V14.01,2013-02-26 20:20:00,
2013-02-26 15:24:00,39.1,27.2,30.19,ENE,68,0.0,5.0,62,0.00,,---,0.00,VWS V14.01,2013-02-26 20:24:00,
2013-02-26 15:29:00,38.9,27.4,30.19,ENE,68,0.0,5.0,63,0.00,,---,0.00,VWS V14.01,2013-02-26 20:29:00,
2013-02-26 15:30:00,37.9,27.9,30.17,ENE,59,0.0,2.0,67,0.00,,---,0.00,VWS V14.01,2013-02-26 20:30:00,
2013-02-26 15:34:00,38.9,27.4,30.19,ENE,68,0.0,1.0,63,0.00,,---,0.00,VWS V14.01,2013-02-26 20:34:00,
2013-02-26 15:39:00,38.8,27.3,30.18,ESE,111,0.0,2.0,63,0.00,,---,0.00,VWS V14.01,2013-02-26 20:39:00,
2013-02-26 15:40:00,37.6,27.6,30.17,East,82,0.0,4.0,67,0.00,,---,0.00,VWS V14.01,2013-02-26 20:40:00,
2013-02-26 15:44:00,38.7,28.0,30.18,ESE,111,0.0,1.0,65,0.00,,---,0.00,VWS V14.01,2013-02-26 20:44:00,
2013-02-26 15:49:00,38.7,27.2,30.18,ESE,111,0.0,1.0,63,0.00,,---,0.00,VWS V14.01,2013-02-26 20:49:00,
2013-02-26 15:50:00,37.4,27.5,30.16,East,94,0.0,4.0,67,0.00,,---,0.00,VWS V14.01,2013-02-26 20:50:00,
2013-02-26 15:54:00,38.6,27.5,30.18,ESE,111,0.0,2.0,64,0.00,,---,0.00,VWS V14.01,2013-02-26 20:54:00,
2013-02-26 15:59:00,38.5,27.4,30.18,NE,41,0.0,4.0,64,0.00,,---,0.00,VWS V14.01,2013-02-26 20:59:00,
2013-02-26 16:00:00,37.3,27.4,30.16,ENE,72,0.0,5.0,67,0.00,,---,0.00,VWS V14.01,2013-02-26 21:00:00,
2013-02-26 16:04:00,38.4,27.7,30.18,NE,41,0.0,2.0,65,0.00,,---,0.00,VWS V14.01,2013-02-26 21:04:00,
2013-02-26 16:09:00,38.4,27.7,30.17,NE,41,0.0,2.0,65,0.00,,---,0.00,VWS V14.01,2013-02-26 21:09:00,
2013-02-26 16:10:00,37.0,27.1,30.16,East,90,0.0,5.0,67,0.00,,---,0.00,VWS V14.01,2013-02-26 21:10:00,
2013-02-26 16:14:00,38.3,27.6,30.17,NE,41,0.0,2.0,65,0.00,,---,0.00,VWS V14.01,2013-02-26 21:14:00,
2013-02-26 16:19:00,38.3,27.6,30.17,ENE,59,0.0,3.0,65,0.00,,---,0.00,VWS V14.01,2013-02-26 21:19:00,
2013-02-26 16:20:00,36.8,27.2,30.15,East,89,1.0,5.0,68,0.00,,---,0.00,VWS V14.01,2013-02-26 21:20:00,
2013-02-26 16:24:00,38.2,28.6,30.17,ENE,59,2.0,2.0,68,0.00,,---,0.00,VWS V14.01,2013-02-26 21:24:00,
2013-02-26 16:29:00,38.0,28.8,30.17,ENE,59,0.0,2.0,69,0.00,,---,0.00,VWS V14.01,2013-02-26 21:29:00,
2013-02-26 16:30:00,36.5,27.3,30.15,East,89,0.0,2.0,69,0.00,,---,0.00,VWS V14.01,2013-02-26 21:30:00,
2013-02-26 16:34:00,37.9,28.3,30.17,ENE,59,0.0,1.0,68,0.00,,---,0.00,VWS V14.01,2013-02-26 21:34:00,
2013-02-26 16:39:00,37.7,28.8,30.17,ENE,67,2.0,2.0,70,0.00,,---,0.00,VWS V14.01,2013-02-26 21:39:00,
2013-02-26 16:40:00,36.3,27.5,30.15,East,89,3.0,5.0,70,0.00,,---,0.00,VWS V14.01,2013-02-26 21:40:00,
2013-02-26 16:44:00,37.5,27.9,30.16,East,82,2.0,2.0,68,0.00,,---,0.00,VWS V14.01,2013-02-26 21:44:00,
2013-02-26 16:49:00,37.4,27.5,30.17,ENE,76,4.0,4.0,67,0.00,,---,0.00,VWS V14.01,2013-02-26 21:49:00,
2013-02-26 16:50:00,36.2,28.1,30.15,East,90,0.0,4.0,72,0.00,,---,0.00,VWS V14.01,2013-02-26 21:50:00,
2013-02-26 16:54:00,37.4,27.8,30.16,East,94,1.0,2.0,68,0.00,,---,0.00,VWS V14.01,2013-02-26 21:54:00,
2013-02-26 16:59:00,37.4,27.8,30.16,SE,130,0.0,5.0,68,0.00,,---,0.00,VWS V14.01,2013-02-26 21:59:00,
2013-02-26 17:00:00,35.9,27.8,30.15,East,92,4.0,4.0,72,0.00,,---,0.00,VWS V14.01,2013-02-26 22:00:00,
2013-02-26 17:04:00,37.3,28.1,30.16,ENE,72,0.0,2.0,69,0.00,,---,0.00,VWS V14.01,2013-02-26 22:04:00,
2013-02-26 17:09:00,37.1,27.2,30.16,ENE,72,1.0,2.0,67,0.00,,---,0.00,VWS V14.01,2013-02-26 22:09:00,
2013-02-26 17:10:00,36.0,27.5,30.15,East,91,1.0,4.0,71,0.00,,---,0.00,VWS V14.01,2013-02-26 22:10:00,
2013-02-26 17:14:00,37.0,27.4,30.15,East,97,2.0,5.0,68,0.00,,---,0.00,VWS V14.01,2013-02-26 22:14:00,
2013-02-26 17:19:00,36.9,27.7,30.15,East,82,2.0,5.0,69,0.00,,---,0.00,VWS V14.01,2013-02-26 22:19:00,
2013-02-26 17:20:00,35.9,27.4,30.15,East,91,0.0,2.0,71,0.00,,---,0.00,VWS V14.01,2013-02-26 22:20:00,
2013-02-26 17:24:00,36.8,27.6,30.15,East,89,0.0,2.0,69,0.00,,---,0.00,VWS V14.01,2013-02-26 22:24:00,
2013-02-26 17:29:00,36.6,27.4,30.15,East,89,0.0,2.0,69,0.00,,---,0.00,VWS V14.01,2013-02-26 22:29:00,
2013-02-26 17:30:00,35.7,27.9,30.16,East,91,0.0,1.0,73,0.00,,---,0.00,VWS V14.01,2013-02-26 22:30:00,
2013-02-26 17:34:00,36.5,27.7,30.15,East,89,0.0,2.0,70,0.00,,---,0.00,VWS V14.01,2013-02-26 22:34:00,
2013-02-26 17:39:00,36.4,27.6,30.15,ESE,109,2.0,5.0,70,0.00,,---,0.00,VWS V14.01,2013-02-26 22:39:00,
2013-02-26 17:40:00,35.5,27.7,30.16,ENE,70,0.0,3.0,73,0.00,,---,0.00,VWS V14.01,2013-02-26 22:40:00,
2013-02-26 17:44:00,36.3,27.5,30.15,East,89,1.0,3.0,70,0.00,,---,0.00,VWS V14.01,2013-02-26 22:44:00,
2013-02-26 17:49:00,36.2,27.4,30.14,East,101,0.0,4.0,70,0.00,,---,0.00,VWS V14.01,2013-02-26 22:49:00,
2013-02-26 17:50:00,35.4,28.0,30.15,ENE,71,2.0,3.0,74,0.00,,---,0.00,VWS V14.01,2013-02-26 22:50:00,
2013-02-26 17:54:00,36.1,27.6,30.15,East,96,1.0,4.0,71,0.00,,---,0.00,VWS V14.01,2013-02-26 22:54:00,
2013-02-26 17:59:00,36.0,27.9,30.15,East,96,0.0,4.0,72,0.00,,---,0.00,VWS V14.01,2013-02-26 22:59:00,
2013-02-26 18:00:00,35.3,27.9,30.15,ENE,71,1.0,3.0,74,0.00,,---,0.00,VWS V14.01,2013-02-26 23:00:00,
2013-02-26 18:04:00,35.9,27.1,30.15,East,91,1.0,4.0,70,0.00,,---,0.00,VWS V14.01,2013-02-26 23:04:00,
2013-02-26 18:09:00,35.9,27.1,30.15,East,91,0.0,4.0,70,0.00,,---,0.00,VWS V14.01,2013-02-26 23:09:00,
2013-02-26 18:10:00,35.3,28.2,30.15,East,90,0.0,2.0,75,0.00,,---,0.00,VWS V14.01,2013-02-26 23:10:00,
2013-02-26 18:14:00,36.0,27.2,30.15,East,91,0.0,2.0,70,0.00,,---,0.00,VWS V14.01,2013-02-26 23:14:00,
2013-02-26 18:19:00,36.0,27.5,30.15,East,91,0.0,2.0,71,0.00,,---,0.00,VWS V14.01,2013-02-26 23:19:00,
2013-02-26 18:20:00,35.2,28.1,30.15,East,90,1.0,2.0,75,0.00,,---,0.00,VWS V14.01,2013-02-26 23:20:00,
2013-02-26 18:24:00,35.9,27.4,30.15,East,91,1.0,1.0,71,0.00,,---,0.00,VWS V14.01,2013-02-26 23:24:00,
2013-02-26 18:29:00,35.7,27.9,30.15,East,91,0.0,1.0,73,0.00,,---,0.00,VWS V14.01,2013-02-26 23:29:00,
2013-02-26 18:30:00,35.1,28.3,30.15,East,87,0.0,3.0,76,0.00,,---,0.00,VWS V14.01,2013-02-26 23:30:00,
2013-02-26 18:34:00,35.6,27.8,30.16,East,91,0.0,2.0,73,0.00,,---,0.00,VWS V14.01,2013-02-26 23:34:00,
2013-02-26 18:39:00,35.5,28.0,30.16,East,91,0.0,2.0,74,0.00,,---,0.00,VWS V14.01,2013-02-26 23:39:00,
2013-02-26 18:40:00,35.1,28.3,30.15,East,87,0.0,1.0,76,0.00,,---,0.00,VWS V14.01,2013-02-26 23:40:00,
2013-02-26 18:44:00,35.5,27.7,30.15,ENE,71,1.0,3.0,73,0.00,,---,0.00,VWS V14.01,2013-02-26 23:44:00,
2013-02-26 18:49:00,35.4,28.3,30.15,ENE,71,0.0,3.0,75,0.00,,---,0.00,VWS V14.01,2013-02-26 23:49:00,
2013-02-26 18:50:00,35.0,28.9,30.14,East,87,0.0,2.0,78,0.00,,---,0.00,VWS V14.01,2013-02-26 23:50:00,
2013-02-26 18:54:00,35.3,27.5,30.16,ENE,71,2.0,3.0,73,0.00,,---,0.00,VWS V14.01,2013-02-26 23:54:00,
2013-02-26 18:59:00,35.3,27.5,30.15,ENE,71,0.0,3.0,73,0.00,,---,0.00,VWS V14.01,2013-02-26 23:59:00,
2013-02-26 19:00:00,34.7,28.6,30.12,East,87,0.0,2.0,78,0.00,,---,0.00,VWS V14.01,2013-02-27 00:00:00,
2013-02-26 19:04:00,35.3,27.9,30.15,ENE,71,1.0,2.0,74,0.00,,---,0.00,VWS V14.01,2013-02-27 00:04:00,
2013-02-26 19:09:00,35.4,28.3,30.15,East,90,0.0,2.0,75,0.00,,---,0.00,VWS V14.01,2013-02-27 00:09:00,
2013-02-26 19:10:00,34.6,28.8,30.12,East,87,0.0,2.0,79,0.00,,---,0.00,VWS V14.01,2013-02-27 00:10:00,
2013-02-26 19:14:00,35.3,28.5,30.15,East,90,0.0,1.0,76,0.00,,---,0.00,VWS V14.01,2013-02-27 00:14:00,
2013-02-26 19:19:00,35.2,28.4,30.15,East,90,0.0,2.0,76,0.00,,---,0.00,VWS V14.01,2013-02-27 00:19:00,
2013-02-26 19:20:00,34.6,28.5,30.12,ENE,57,0.0,3.0,78,0.00,,---,0.00,VWS V14.01,2013-02-27 00:20:00,
2013-02-26 19:24:00,35.2,28.4,30.15,East,90,1.0,1.0,76,0.00,,---,0.00,VWS V14.01,2013-02-27 00:24:00,
2013-02-26 19:29:00,35.1,28.3,30.15,East,87,0.0,3.0,76,0.00,,---,0.00,VWS V14.01,2013-02-27 00:29:00,
2013-02-26 19:30:00,34.5,28.4,30.12,ENE,57,0.0,1.0,78,0.00,,---,0.00,VWS V14.01,2013-02-27 00:30:00,
2013-02-26 19:34:00,35.1,28.3,30.15,East,87,0.0,1.0,76,0.00,,---,0.00,VWS V14.01,2013-02-27 00:34:00,
2013-02-26 19:39:00,35.1,28.3,30.15,East,87,0.0,1.0,76,0.00,,---,0.00,VWS V14.01,2013-02-27 00:39:00,
2013-02-26 19:40:00,34.4,28.3,30.11,ENE,57,0.0,2.0,78,0.00,,---,0.00,VWS V14.01,2013-02-27 00:40:00,
2013-02-26 19:44:00,35.1,28.6,30.14,East,87,0.0,0.0,77,0.00,,---,0.00,VWS V14.01,2013-02-27 00:44:00,
2013-02-26 19:49:00,35.0,28.5,30.14,East,87,1.0,1.0,77,0.00,,---,0.00,VWS V14.01,2013-02-27 00:49:00,
2013-02-26 19:50:00,34.3,27.9,30.11,ENE,57,0.0,2.0,77,0.00,,---,0.00,VWS V14.01,2013-02-27 00:50:00,
2013-02-26 19:54:00,34.9,28.8,30.14,East,87,1.0,1.0,78,0.00,,---,0.00,VWS V14.01,2013-02-27 00:54:00,
2013-02-26 19:59:00,34.8,28.6,30.12,East,87,0.0,2.0,78,0.00,,---,0.00,VWS V14.01,2013-02-27 00:59:00,
2013-02-26 20:00:00,34.2,27.4,30.10,ENE,57,0.0,3.0,76,0.00,,---,0.00,VWS V14.01,2013-02-27 01:00:00,
2013-02-26 20:04:00,34.7,28.9,30.12,East,87,0.0,1.0,79,0.00,,---,0.00,VWS V14.01,2013-02-27 01:04:00,
2013-02-26 20:09:00,34.6,28.5,30.12,East,87,1.0,2.0,78,0.00,,---,0.00,VWS V14.01,2013-02-27 01:09:00,
2013-02-26 20:10:00,34.2,26.1,30.09,NE,46,0.0,4.0,72,0.00,,---,0.00,VWS V14.01,2013-02-27 01:10:00,
2013-02-26 20:14:00,34.6,28.1,30.12,East,87,0.0,2.0,77,0.00,,---,0.00,VWS V14.01,2013-02-27 01:14:00,
2013-02-26 20:19:00,34.6,28.1,30.12,ENE,57,0.0,3.0,77,0.00,,---,0.00,VWS V14.01,2013-02-27 01:19:00,
2013-02-26 20:20:00,34.2,26.1,30.10,NE,46,0.0,2.0,72,0.00,,---,0.00,VWS V14.01,2013-02-27 01:20:00,
2013-02-26 20:24:00,34.6,28.5,30.12,ENE,57,0.0,1.0,78,0.00,,---,0.00,VWS V14.01,2013-02-27 01:24:00,
2013-02-26 20:29:00,34.5,28.4,30.12,ENE,57,0.0,1.0,78,0.00,,---,0.00,VWS V14.01,2013-02-27 01:29:00,
2013-02-26 20:30:00,34.2,26.1,30.09,NE,46,0.0,2.0,72,0.00,,---,0.00,VWS V14.01,2013-02-27 01:30:00,
2013-02-26 20:34:00,34.4,28.3,30.12,ENE,57,0.0,2.0,78,0.00,,---,0.00,VWS V14.01,2013-02-27 01:34:00,
2013-02-26 20:39:00,34.4,28.6,30.12,ENE,57,0.0,2.0,79,0.00,,---,0.00,VWS V14.01,2013-02-27 01:39:00,
2013-02-26 20:40:00,34.1,25.7,30.07,NE,46,0.0,3.0,71,0.00,,---,0.00,VWS V14.01,2013-02-27 01:40:00,
2013-02-26 20:44:00,34.4,28.3,30.11,ENE,57,0.0,1.0,78,0.00,,---,0.00,VWS V14.01,2013-02-27 01:44:00,
2013-02-26 20:49:00,34.3,27.5,30.11,ENE,57,0.0,2.0,76,0.00,,---,0.00,VWS V14.01,2013-02-27 01:49:00,
2013-02-26 20:50:00,34.0,25.3,30.07,East,96,0.0,5.0,70,0.00,,---,0.00,VWS V14.01,2013-02-27 01:50:00,
2013-02-26 20:54:00,34.3,27.2,30.10,ENE,57,0.0,3.0,75,0.00,,---,0.00,VWS V14.01,2013-02-27 01:54:00,
2013-02-26 20:59:00,34.2,27.1,30.10,ENE,57,0.0,3.0,75,0.00,,---,0.00,VWS V14.01,2013-02-27 01:59:00,
2013-02-26 21:00:00,33.9,25.5,30.06,East,96,2.0,2.0,71,0.00,,---,0.00,VWS V14.01,2013-02-27 02:00:00,
2013-02-26 21:04:00,34.1,26.7,30.10,ENE,57,0.0,1.0,74,0.00,,---,0.00,VWS V14.01,2013-02-27 02:04:00,
2013-02-26 21:09:00,34.2,26.1,30.09,NE,46,0.0,4.0,72,0.00,,---,0.00,VWS V14.01,2013-02-27 02:09:00,
2013-02-26 21:10:00,33.9,24.8,30.06,East,96,0.0,2.0,69,0.00,,---,0.00,VWS V14.01,2013-02-27 02:10:00,
2013-02-26 21:14:00,34.2,25.8,30.09,NE,46,0.0,1.0,71,0.00,,---,0.00,VWS V14.01,2013-02-27 02:14:00,
2013-02-26 21:19:00,34.2,25.1,30.10,NE,46,0.0,2.0,69,0.00,,---,0.00,VWS V14.01,2013-02-27 02:19:00,
2013-02-26 21:20:00,33.9,25.2,30.06,East,86,3.0,3.0,70,0.00,,---,0.00,VWS V14.01,2013-02-27 02:20:00,
2013-02-26 21:25:00,34.2,25.1,30.09,NE,46,0.0,2.0,69,0.00,,---,0.00,VWS V14.01,2013-02-27 02:25:00,
2013-02-26 21:30:00,34.2,26.1,30.09,NE,46,1.0,2.0,72,0.00,,---,0.00,VWS V14.01,2013-02-27 02:30:00,
2013-02-26 21:35:00,34.1,26.0,30.08,NE,46,1.0,3.0,72,0.00,,---,0.00,VWS V14.01,2013-02-27 02:35:00,
2013-02-26 21:40:00,34.1,26.0,30.07,NE,46,1.0,3.0,72,0.00,,---,0.00,VWS V14.01,2013-02-27 02:40:00,
2013-02-26 21:45:00,34.0,24.9,30.07,ESE,123,0.0,5.0,69,0.00,,---,0.00,VWS V14.01,2013-02-27 02:45:00,
2013-02-26 21:50:00,34.0,24.9,30.07,ENE,59,0.0,5.0,69,0.00,,---,0.00,VWS V14.01,2013-02-27 02:50:00,
2013-02-26 21:55:00,34.0,25.6,30.06,East,96,0.0,1.0,71,0.00,,---,0.00,VWS V14.01,2013-02-27 02:55:00,
2013-02-26 22:00:00,33.9,25.5,30.06,East,96,0.0,1.0,71,0.00,,---,0.00,VWS V14.01,2013-02-27 03:00:00,
2013-02-26 22:05:00,33.9,25.5,30.05,East,96,0.0,2.0,71,0.00,,---,0.00,VWS V14.01,2013-02-27 03:05:00,
2013-02-26 22:10:00,33.9,25.2,30.06,East,96,1.0,2.0,70,0.00,,---,0.00,VWS V14.01,2013-02-27 03:10:00,
2013-02-26 22:14:00,33.9,24.5,30.06,East,96,0.0,0.0,68,0.00,,---,0.00,VWS V14.01,2013-02-27 03:14:00,
2013-02-26 22:19:00,33.9,25.2,30.06,East,96,0.0,2.0,70,0.00,,---,0.00,VWS V14.01,2013-02-27 03:19:00,
2013-02-26 22:20:00,30.8,28.2,30.03,NE,51,0.0,1.0,90,0.00,,---,0.00,VWS V14.01,2013-02-27 03:20:00,
2013-02-26 22:24:00,33.9,25.8,30.05,East,92,4.0,5.0,72,0.00,,---,0.00,VWS V14.01,2013-02-27 03:24:00,
2013-02-26 22:29:00,33.8,25.7,30.06,East,94,2.0,7.0,72,0.00,,---,0.00,VWS V14.01,2013-02-27 03:29:00,
2013-02-26 22:30:00,30.5,28.2,30.01,NE,51,0.0,2.0,91,0.00,,---,0.00,VWS V14.01,2013-02-27 03:30:00,
2013-02-26 22:34:00,33.5,26.1,30.06,East,80,0.0,1.0,74,0.00,,---,0.00,VWS V14.01,2013-02-27 03:34:00,
2013-02-26 22:40:00,33.2,25.8,30.06,ENE,74,4.0,6.0,74,0.00,,---,0.00,VWS V14.01,2013-02-27 03:40:00,
2013-02-26 22:45:00,32.9,25.9,30.05,ENE,73,1.0,4.0,75,0.00,,---,0.00,VWS V14.01,2013-02-27 03:45:00,
2013-02-26 22:50:00,32.7,26.3,30.04,NE,50,0.0,4.0,77,0.00,,---,0.00,VWS V14.01,2013-02-27 03:50:00,
2013-02-26 22:55:00,32.4,27.2,30.03,NE,51,0.0,2.0,81,0.00,,---,0.00,VWS V14.01,2013-02-27 03:55:00,
2013-02-26 23:00:00,32.1,27.8,30.03,NE,51,0.0,2.0,84,0.00,,---,0.00,VWS V14.01,2013-02-27 04:00:00,
2013-02-26 23:05:00,31.7,28.0,30.04,NE,51,0.0,0.0,86,0.00,,---,0.00,VWS V14.01,2013-02-27 04:05:00,
2013-02-26 23:10:00,31.5,28.4,30.03,NE,51,0.0,0.0,88,0.00,,---,0.00,VWS V14.01,2013-02-27 04:10:00,
2013-02-26 23:15:00,31.2,28.3,30.03,NE,51,0.0,1.0,89,0.00,,---,0.00,VWS V14.01,2013-02-27 04:15:00,
2013-02-26 23:20:00,30.9,28.0,30.03,NE,51,0.0,1.0,89,0.00,,---,0.00,VWS V14.01,2013-02-27 04:20:00,
2013-02-26 23:25:00,30.8,28.2,30.03,NE,51,0.0,0.0,90,0.00,,---,0.00,VWS V14.01,2013-02-27 04:25:00,
2013-02-26 23:30:00,30.6,28.0,30.02,NE,51,0.0,2.0,90,0.00,,---,0.00,VWS V14.01,2013-02-27 04:30:00,
2013-02-26 23:35:00,30.4,28.1,30.01,NE,51,0.0,0.0,91,0.00,,---,0.00,VWS V14.01,2013-02-27 04:35:00,
2013-02-26 23:40:00,30.3,28.3,30.01,NE,51,0.0,0.0,92,0.00,,---,0.00,VWS V14.01,2013-02-27 04:40:00,
2013-02-26 23:45:00,30.1,28.1,30.00,NE,51,0.0,1.0,92,0.00,,---,0.00,VWS V14.01,2013-02-27 04:45:00,
2013-02-26 23:50:00,30.1,28.3,30.00,NE,51,0.0,1.0,93,0.00,,---,0.00,VWS V14.01,2013-02-27 04:50:00,
2013-02-26 23:55:00,30.0,28.2,30.00,NE,51,0.0,2.0,93,0.00,,---,0.00,VWS V14.01,2013-02-27 04:55:00,